sensor_id;sensor_type;location;lat;lon;timestamp;P1;durP1;ratioP1;P2;durP2;ratioP2
16093;SDS011;8151;47.824;12.092;2022-09-09T00:01:14;1.77;;;0.60;;
16093;SDS011;8151;47.824;12.092;2022-09-09T00:04:45;0.40;;;0.40;;
16093;SDS011;8151;47.824;12.092;2022-09-09T00:08:15;0.77;;;0.30;;
16093;SDS011;8151;47.824;12.092;2022-09-09T00:11:41;0.57;;;0.57;;
16093;SDS011;8151;47.824;12.092;2022-09-09T00:15:00;0.33;;;0.33;;
16093;SDS011;8151;47.824;12.092;2022-09-09T00:18:23;1.07;;;0.50;;
16093;SDS011;8151;47.824;12.092;2022-09-09T00:21:43;2.60;;;0.50;;
16093;SDS011;8151;47.824;12.092;2022-09-09T00:25:10;0.60;;;0.60;;
16093;SDS011;8151;47.824;12.092;2022-09-09T00:28:33;0.67;;;0.50;;
16093;SDS011;8151;47.824;12.092;2022-09-09T00:31:55;0.50;;;0.50;;
16093;SDS011;8151;47.824;12.092;2022-09-09T00:35:17;3.50;;;0.53;;
16093;SDS011;8151;47.824;12.092;2022-09-09T00:38:40;0.50;;;0.50;;
16093;SDS011;8151;47.824;12.092;2022-09-09T00:42:04;2.47;;;0.40;;
16093;SDS011;8151;47.824;12.092;2022-09-09T00:45:37;0.93;;;0.60;;
16093;SDS011;8151;47.824;12.092;2022-09-09T00:49:09;0.40;;;0.37;;
16093;SDS011;8151;47.824;12.092;2022-09-09T00:52:36;2.97;;;0.50;;
16093;SDS011;8151;47.824;12.092;2022-09-09T00:56:03;0.63;;;0.63;;
16093;SDS011;8151;47.824;12.092;2022-09-09T00:59:28;2.17;;;0.50;;
16093;SDS011;8151;47.824;12.092;2022-09-09T01:06:45;0.53;;;0.40;;
16093;SDS011;8151;47.824;12.092;2022-09-09T01:10:06;1.23;;;0.57;;
16093;SDS011;8151;47.824;12.092;2022-09-09T01:13:33;0.40;;;0.30;;
16093;SDS011;8151;47.824;12.092;2022-09-09T01:16:52;0.50;;;0.50;;
16093;SDS011;8151;47.824;12.092;2022-09-09T01:20:16;1.80;;;0.40;;
16093;SDS011;8151;47.824;12.092;2022-09-09T01:23:43;2.73;;;0.50;;
16093;SDS011;8151;47.824;12.092;2022-09-09T01:27:12;0.60;;;0.47;;
16093;SDS011;8151;47.824;12.092;2022-09-09T01:30:30;0.37;;;0.37;;
16093;SDS011;8151;47.824;12.092;2022-09-09T01:33:49;0.50;;;0.47;;
16093;SDS011;8151;47.824;12.092;2022-09-09T01:37:06;0.60;;;0.60;;
16093;SDS011;8151;47.824;12.092;2022-09-09T01:40:24;1.03;;;0.47;;
16093;SDS011;8151;47.824;12.092;2022-09-09T01:43:43;1.70;;;0.60;;
16093;SDS011;8151;47.824;12.092;2022-09-09T01:47:01;1.50;;;0.60;;
16093;SDS011;8151;47.824;12.092;2022-09-09T01:50:19;2.93;;;0.83;;
16093;SDS011;8151;47.824;12.092;2022-09-09T01:53:36;1.23;;;0.60;;
16093;SDS011;8151;47.824;12.092;2022-09-09T01:56:55;0.80;;;0.70;;
16093;SDS011;8151;47.824;12.092;2022-09-09T02:00:23;0.50;;;0.40;;
16093;SDS011;8151;47.824;12.092;2022-09-09T02:03:39;0.60;;;0.50;;
16093;SDS011;8151;47.824;12.092;2022-09-09T02:07:01;1.20;;;0.50;;
16093;SDS011;8151;47.824;12.092;2022-09-09T02:10:21;3.43;;;0.70;;
16093;SDS011;8151;47.824;12.092;2022-09-09T02:13:40;2.53;;;0.80;;
16093;SDS011;8151;47.824;12.092;2022-09-09T02:17:01;0.53;;;0.53;;
16093;SDS011;8151;47.824;12.092;2022-09-09T02:20:23;3.07;;;0.73;;
16093;SDS011;8151;47.824;12.092;2022-09-09T02:23:40;1.77;;;0.60;;
16093;SDS011;8151;47.824;12.092;2022-09-09T02:27:00;0.40;;;0.40;;
16093;SDS011;8151;47.824;12.092;2022-09-09T02:30:21;3.30;;;0.60;;
16093;SDS011;8151;47.824;12.092;2022-09-09T02:33:40;0.60;;;0.60;;
16093;SDS011;8151;47.824;12.092;2022-09-09T02:37:01;2.33;;;0.73;;
16093;SDS011;8151;47.824;12.092;2022-09-09T02:40:19;0.50;;;0.50;;
16093;SDS011;8151;47.824;12.092;2022-09-09T02:43:36;3.73;;;0.70;;
16093;SDS011;8151;47.824;12.092;2022-09-09T02:47:02;0.77;;;0.53;;
16093;SDS011;8151;47.824;12.092;2022-09-09T02:50:33;0.67;;;0.50;;
16093;SDS011;8151;47.824;12.092;2022-09-09T02:53:54;1.33;;;0.80;;
16093;SDS011;8151;47.824;12.092;2022-09-09T02:57:19;0.37;;;0.37;;
16093;SDS011;8151;47.824;12.092;2022-09-09T03:00:39;2.10;;;0.80;;
16093;SDS011;8151;47.824;12.092;2022-09-09T03:03:56;3.40;;;0.60;;
16093;SDS011;8151;47.824;12.092;2022-09-09T03:07:13;0.80;;;0.50;;
16093;SDS011;8151;47.824;12.092;2022-09-09T03:10:30;1.07;;;0.70;;
16093;SDS011;8151;47.824;12.092;2022-09-09T03:13:46;0.47;;;0.40;;
16093;SDS011;8151;47.824;12.092;2022-09-09T03:17:02;0.40;;;0.40;;
16093;SDS011;8151;47.824;12.092;2022-09-09T03:20:18;2.87;;;0.50;;
16093;SDS011;8151;47.824;12.092;2022-09-09T03:23:35;0.50;;;0.50;;
16093;SDS011;8151;47.824;12.092;2022-09-09T03:26:52;1.03;;;0.60;;
16093;SDS011;8151;47.824;12.092;2022-09-09T03:30:09;2.67;;;0.73;;
16093;SDS011;8151;47.824;12.092;2022-09-09T03:33:27;0.50;;;0.50;;
16093;SDS011;8151;47.824;12.092;2022-09-09T03:36:43;0.40;;;0.40;;
16093;SDS011;8151;47.824;12.092;2022-09-09T03:40:00;1.23;;;0.67;;
16093;SDS011;8151;47.824;12.092;2022-09-09T03:43:17;0.50;;;0.50;;
16093;SDS011;8151;47.824;12.092;2022-09-09T03:46:33;4.07;;;0.90;;
16093;SDS011;8151;47.824;12.092;2022-09-09T03:49:50;4.33;;;0.97;;
16093;SDS011;8151;47.824;12.092;2022-09-09T03:53:06;2.50;;;0.70;;
16093;SDS011;8151;47.824;12.092;2022-09-09T03:56:24;1.07;;;0.60;;
16093;SDS011;8151;47.824;12.092;2022-09-09T03:59:41;0.30;;;0.30;;
16093;SDS011;8151;47.824;12.092;2022-09-09T04:02:57;2.00;;;0.60;;
16093;SDS011;8151;47.824;12.092;2022-09-09T04:06:15;1.00;;;0.50;;
16093;SDS011;8151;47.824;12.092;2022-09-09T04:09:32;0.93;;;0.80;;
16093;SDS011;8151;47.824;12.092;2022-09-09T04:12:51;0.83;;;0.40;;
16093;SDS011;8151;47.824;12.092;2022-09-09T04:16:08;0.30;;;0.30;;
16093;SDS011;8151;47.824;12.092;2022-09-09T04:19:26;2.03;;;0.70;;
16093;SDS011;8151;47.824;12.092;2022-09-09T04:22:42;2.60;;;0.60;;
16093;SDS011;8151;47.824;12.092;2022-09-09T04:25:59;1.07;;;0.60;;
16093;SDS011;8151;47.824;12.092;2022-09-09T04:29:18;0.70;;;0.70;;
16093;SDS011;8151;47.824;12.092;2022-09-09T04:32:35;1.30;;;0.70;;
16093;SDS011;8151;47.824;12.092;2022-09-09T04:35:51;0.57;;;0.57;;
16093;SDS011;8151;47.824;12.092;2022-09-09T04:39:08;0.77;;;0.60;;
16093;SDS011;8151;47.824;12.092;2022-09-09T04:42:24;0.50;;;0.50;;
16093;SDS011;8151;47.824;12.092;2022-09-09T04:45:41;0.47;;;0.47;;
16093;SDS011;8151;47.824;12.092;2022-09-09T04:48:58;0.53;;;0.33;;
16093;SDS011;8151;47.824;12.092;2022-09-09T04:52:14;1.30;;;0.97;;
16093;SDS011;8151;47.824;12.092;2022-09-09T04:55:30;0.57;;;0.50;;
16093;SDS011;8151;47.824;12.092;2022-09-09T04:58:47;0.57;;;0.50;;
16093;SDS011;8151;47.824;12.092;2022-09-09T05:02:05;0.53;;;0.47;;
16093;SDS011;8151;47.824;12.092;2022-09-09T05:05:22;0.53;;;0.37;;
16093;SDS011;8151;47.824;12.092;2022-09-09T05:08:38;0.40;;;0.40;;
16093;SDS011;8151;47.824;12.092;2022-09-09T05:11:56;0.30;;;0.30;;
16093;SDS011;8151;47.824;12.092;2022-09-09T05:15:12;2.33;;;0.70;;
16093;SDS011;8151;47.824;12.092;2022-09-09T05:18:30;0.50;;;0.50;;
16093;SDS011;8151;47.824;12.092;2022-09-09T05:21:47;0.30;;;0.30;;
16093;SDS011;8151;47.824;12.092;2022-09-09T05:25:05;0.60;;;0.60;;
16093;SDS011;8151;47.824;12.092;2022-09-09T05:28:22;0.47;;;0.47;;
16093;SDS011;8151;47.824;12.092;2022-09-09T05:31:39;1.23;;;0.60;;
16093;SDS011;8151;47.824;12.092;2022-09-09T05:34:56;4.37;;;0.60;;
16093;SDS011;8151;47.824;12.092;2022-09-09T05:38:13;0.50;;;0.50;;
16093;SDS011;8151;47.824;12.092;2022-09-09T05:41:29;6.03;;;0.97;;
16093;SDS011;8151;47.824;12.092;2022-09-09T05:44:45;0.67;;;0.67;;
16093;SDS011;8151;47.824;12.092;2022-09-09T05:48:01;1.80;;;0.70;;
16093;SDS011;8151;47.824;12.092;2022-09-09T05:51:20;1.30;;;0.50;;
16093;SDS011;8151;47.824;12.092;2022-09-09T05:54:38;0.90;;;0.53;;
16093;SDS011;8151;47.824;12.092;2022-09-09T05:57:54;0.70;;;0.60;;
16093;SDS011;8151;47.824;12.092;2022-09-09T06:01:11;4.60;;;0.80;;
16093;SDS011;8151;47.824;12.092;2022-09-09T06:04:28;1.33;;;0.73;;
16093;SDS011;8151;47.824;12.092;2022-09-09T06:07:45;1.23;;;0.70;;
16093;SDS011;8151;47.824;12.092;2022-09-09T06:11:02;0.73;;;0.60;;
16093;SDS011;8151;47.824;12.092;2022-09-09T06:14:21;0.67;;;0.67;;
16093;SDS011;8151;47.824;12.092;2022-09-09T06:17:37;0.60;;;0.50;;
16093;SDS011;8151;47.824;12.092;2022-09-09T06:20:54;1.13;;;0.47;;
16093;SDS011;8151;47.824;12.092;2022-09-09T06:24:12;0.40;;;0.40;;
16093;SDS011;8151;47.824;12.092;2022-09-09T06:27:30;1.23;;;0.47;;
16093;SDS011;8151;47.824;12.092;2022-09-09T06:30:47;0.63;;;0.63;;
16093;SDS011;8151;47.824;12.092;2022-09-09T06:34:04;3.50;;;0.50;;
16093;SDS011;8151;47.824;12.092;2022-09-09T06:37:22;1.30;;;0.53;;
16093;SDS011;8151;47.824;12.092;2022-09-09T06:40:39;0.47;;;0.47;;
16093;SDS011;8151;47.824;12.092;2022-09-09T06:43:58;0.50;;;0.50;;
16093;SDS011;8151;47.824;12.092;2022-09-09T06:47:15;0.50;;;0.50;;
16093;SDS011;8151;47.824;12.092;2022-09-09T06:50:31;2.50;;;0.77;;
16093;SDS011;8151;47.824;12.092;2022-09-09T06:53:49;0.73;;;0.67;;
16093;SDS011;8151;47.824;12.092;2022-09-09T06:57:08;0.57;;;0.50;;
16093;SDS011;8151;47.824;12.092;2022-09-09T07:00:25;0.80;;;0.80;;
16093;SDS011;8151;47.824;12.092;2022-09-09T07:03:44;0.77;;;0.50;;
16093;SDS011;8151;47.824;12.092;2022-09-09T07:07:02;1.13;;;0.50;;
16093;SDS011;8151;47.824;12.092;2022-09-09T07:10:19;0.50;;;0.50;;
16093;SDS011;8151;47.824;12.092;2022-09-09T07:13:36;0.87;;;0.57;;
16093;SDS011;8151;47.824;12.092;2022-09-09T07:16:54;1.13;;;0.60;;
16093;SDS011;8151;47.824;12.092;2022-09-09T07:20:10;2.00;;;0.70;;
16093;SDS011;8151;47.824;12.092;2022-09-09T07:23:28;0.60;;;0.50;;
16093;SDS011;8151;47.824;12.092;2022-09-09T07:26:45;6.23;;;0.70;;
16093;SDS011;8151;47.824;12.092;2022-09-09T07:30:03;1.53;;;0.60;;
16093;SDS011;8151;47.824;12.092;2022-09-09T07:33:20;1.13;;;0.83;;
16093;SDS011;8151;47.824;12.092;2022-09-09T07:36:37;0.50;;;0.50;;
16093;SDS011;8151;47.824;12.092;2022-09-09T07:39:55;2.73;;;1.00;;
16093;SDS011;8151;47.824;12.092;2022-09-09T07:42:24;0.67;;;0.67;;
16093;SDS011;8151;47.824;12.092;2022-09-09T07:44:52;0.60;;;0.60;;
16093;SDS011;8151;47.824;12.092;2022-09-09T07:47:23;1.53;;;0.70;;
16093;SDS011;8151;47.824;12.092;2022-09-09T07:49:51;2.03;;;0.90;;
16093;SDS011;8151;47.824;12.092;2022-09-09T07:52:20;0.83;;;0.70;;
16093;SDS011;8151;47.824;12.092;2022-09-09T07:54:49;0.80;;;0.80;;
16093;SDS011;8151;47.824;12.092;2022-09-09T07:57:19;0.93;;;0.87;;
16093;SDS011;8151;47.824;12.092;2022-09-09T07:59:48;2.67;;;0.77;;
16093;SDS011;8151;47.824;12.092;2022-09-09T08:02:17;2.47;;;0.70;;
16093;SDS011;8151;47.824;12.092;2022-09-09T08:04:47;1.17;;;0.73;;
16093;SDS011;8151;47.824;12.092;2022-09-09T08:07:15;0.60;;;0.60;;
16093;SDS011;8151;47.824;12.092;2022-09-09T08:09:44;1.43;;;1.00;;
16093;SDS011;8151;47.824;12.092;2022-09-09T08:12:13;0.87;;;0.60;;
16093;SDS011;8151;47.824;12.092;2022-09-09T08:14:41;1.80;;;0.90;;
16093;SDS011;8151;47.824;12.092;2022-09-09T08:17:10;1.03;;;0.70;;
16093;SDS011;8151;47.824;12.092;2022-09-09T08:19:38;0.90;;;0.80;;
16093;SDS011;8151;47.824;12.092;2022-09-09T08:22:08;1.03;;;0.70;;
16093;SDS011;8151;47.824;12.092;2022-09-09T08:24:36;2.50;;;1.00;;
16093;SDS011;8151;47.824;12.092;2022-09-09T08:27:06;2.27;;;1.10;;
16093;SDS011;8151;47.824;12.092;2022-09-09T08:29:34;1.07;;;0.90;;
16093;SDS011;8151;47.824;12.092;2022-09-09T08:32:04;1.50;;;0.60;;
16093;SDS011;8151;47.824;12.092;2022-09-09T08:34:33;1.00;;;0.90;;
16093;SDS011;8151;47.824;12.092;2022-09-09T08:37:01;1.27;;;1.07;;
16093;SDS011;8151;47.824;12.092;2022-09-09T08:39:31;1.70;;;1.30;;
16093;SDS011;8151;47.824;12.092;2022-09-09T08:45:11;1.07;;;0.60;;
16093;SDS011;8151;47.824;12.092;2022-09-09T08:47:52;0.90;;;0.90;;
16093;SDS011;8151;47.824;12.092;2022-09-09T08:50:28;0.87;;;0.80;;
16093;SDS011;8151;47.824;12.092;2022-09-09T08:53:03;0.70;;;0.70;;
16093;SDS011;8151;47.824;12.092;2022-09-09T08:55:41;1.87;;;0.83;;
16093;SDS011;8151;47.824;12.092;2022-09-09T08:58:14;3.03;;;0.90;;
16093;SDS011;8151;47.824;12.092;2022-09-09T09:00:52;2.33;;;0.80;;
16093;SDS011;8151;47.824;12.092;2022-09-09T09:03:32;1.00;;;1.00;;
16093;SDS011;8151;47.824;12.092;2022-09-09T09:06:11;2.60;;;1.00;;
16093;SDS011;8151;47.824;12.092;2022-09-09T09:08:59;0.90;;;0.90;;
16093;SDS011;8151;47.824;12.092;2022-09-09T09:11:36;1.63;;;0.93;;
16093;SDS011;8151;47.824;12.092;2022-09-09T09:14:08;2.27;;;1.17;;
16093;SDS011;8151;47.824;12.092;2022-09-09T09:16:47;1.43;;;0.97;;
16093;SDS011;8151;47.824;12.092;2022-09-09T09:19:18;2.40;;;1.07;;
16093;SDS011;8151;47.824;12.092;2022-09-09T09:21:50;2.80;;;0.90;;
16093;SDS011;8151;47.824;12.092;2022-09-09T09:24:27;0.83;;;0.83;;
16093;SDS011;8151;47.824;12.092;2022-09-09T09:27:11;0.83;;;0.80;;
16093;SDS011;8151;47.824;12.092;2022-09-09T09:29:41;2.30;;;1.00;;
16093;SDS011;8151;47.824;12.092;2022-09-09T09:32:33;2.73;;;1.10;;
16093;SDS011;8151;47.824;12.092;2022-09-09T09:35:06;1.80;;;1.00;;
16093;SDS011;8151;47.824;12.092;2022-09-09T09:37:40;1.07;;;1.00;;
16093;SDS011;8151;47.824;12.092;2022-09-09T09:40:30;1.17;;;1.17;;
16093;SDS011;8151;47.824;12.092;2022-09-09T09:43:02;1.20;;;0.80;;
16093;SDS011;8151;47.824;12.092;2022-09-09T09:45:35;0.90;;;0.90;;
16093;SDS011;8151;47.824;12.092;2022-09-09T09:48:31;1.10;;;0.90;;
16093;SDS011;8151;47.824;12.092;2022-09-09T09:51:08;2.50;;;1.13;;
16093;SDS011;8151;47.824;12.092;2022-09-09T09:53:39;1.60;;;1.30;;
16093;SDS011;8151;47.824;12.092;2022-09-09T09:56:08;1.40;;;1.30;;
16093;SDS011;8151;47.824;12.092;2022-09-09T09:58:49;2.23;;;1.37;;
16093;SDS011;8151;47.824;12.092;2022-09-09T10:01:20;1.67;;;1.00;;
16093;SDS011;8151;47.824;12.092;2022-09-09T10:03:51;1.33;;;1.20;;
16093;SDS011;8151;47.824;12.092;2022-09-09T10:06:30;5.53;;;1.33;;
16093;SDS011;8151;47.824;12.092;2022-09-09T10:09:00;2.77;;;1.20;;
16093;SDS011;8151;47.824;12.092;2022-09-09T10:11:35;1.33;;;1.23;;
16093;SDS011;8151;47.824;12.092;2022-09-09T10:14:15;1.67;;;1.30;;
16093;SDS011;8151;47.824;12.092;2022-09-09T10:16:58;2.97;;;1.30;;
16093;SDS011;8151;47.824;12.092;2022-09-09T10:19:37;4.87;;;1.50;;
16093;SDS011;8151;47.824;12.092;2022-09-09T10:22:14;3.13;;;1.70;;
16093;SDS011;8151;47.824;12.092;2022-09-09T10:25:04;3.87;;;1.70;;
16093;SDS011;8151;47.824;12.092;2022-09-09T10:27:47;2.07;;;1.40;;
16093;SDS011;8151;47.824;12.092;2022-09-09T10:30:35;2.27;;;1.00;;
16093;SDS011;8151;47.824;12.092;2022-09-09T10:33:18;4.70;;;1.47;;
16093;SDS011;8151;47.824;12.092;2022-09-09T10:35:56;1.80;;;1.50;;
16093;SDS011;8151;47.824;12.092;2022-09-09T10:38:34;3.37;;;1.00;;
16093;SDS011;8151;47.824;12.092;2022-09-09T10:41:12;3.00;;;1.37;;
16093;SDS011;8151;47.824;12.092;2022-09-09T10:47:09;3.27;;;1.60;;
16093;SDS011;8151;47.824;12.092;2022-09-09T10:50:00;2.07;;;1.20;;
16093;SDS011;8151;47.824;12.092;2022-09-09T10:52:58;2.20;;;1.27;;
16093;SDS011;8151;47.824;12.092;2022-09-09T10:55:37;2.03;;;1.30;;
16093;SDS011;8151;47.824;12.092;2022-09-09T10:58:10;2.10;;;1.57;;
16093;SDS011;8151;47.824;12.092;2022-09-09T11:00:43;1.60;;;1.37;;
16093;SDS011;8151;47.824;12.092;2022-09-09T11:03:17;2.50;;;1.73;;
16093;SDS011;8151;47.824;12.092;2022-09-09T11:05:51;1.93;;;1.40;;
16093;SDS011;8151;47.824;12.092;2022-09-09T11:08:27;2.53;;;1.50;;
16093;SDS011;8151;47.824;12.092;2022-09-09T11:10:58;1.43;;;1.33;;
16093;SDS011;8151;47.824;12.092;2022-09-09T11:13:35;1.30;;;1.20;;
16093;SDS011;8151;47.824;12.092;2022-09-09T11:16:16;1.70;;;1.20;;
16093;SDS011;8151;47.824;12.092;2022-09-09T11:18:55;4.10;;;1.10;;
16093;SDS011;8151;47.824;12.092;2022-09-09T11:21:30;1.43;;;1.30;;
16093;SDS011;8151;47.824;12.092;2022-09-09T11:24:03;1.80;;;1.20;;
16093;SDS011;8151;47.824;12.092;2022-09-09T11:26:39;0.70;;;0.70;;
16093;SDS011;8151;47.824;12.092;2022-09-09T11:29:22;2.60;;;1.33;;
16093;SDS011;8151;47.824;12.092;2022-09-09T11:32:09;1.27;;;0.97;;
16093;SDS011;8151;47.824;12.092;2022-09-09T11:34:59;3.93;;;1.77;;
16093;SDS011;8151;47.824;12.092;2022-09-09T11:37:40;1.23;;;1.10;;
16093;SDS011;8151;47.824;12.092;2022-09-09T11:40:23;4.93;;;1.00;;
16093;SDS011;8151;47.824;12.092;2022-09-09T11:43:02;2.43;;;1.10;;
16093;SDS011;8151;47.824;12.092;2022-09-09T11:45:33;4.20;;;1.20;;
16093;SDS011;8151;47.824;12.092;2022-09-09T11:48:04;1.83;;;1.00;;
16093;SDS011;8151;47.824;12.092;2022-09-09T11:50:35;1.63;;;1.10;;
16093;SDS011;8151;47.824;12.092;2022-09-09T11:53:14;1.57;;;1.20;;
16093;SDS011;8151;47.824;12.092;2022-09-09T11:56:05;0.77;;;0.77;;
16093;SDS011;8151;47.824;12.092;2022-09-09T11:58:37;3.53;;;0.80;;
16093;SDS011;8151;47.824;12.092;2022-09-09T12:07:03;0.90;;;0.80;;
16093;SDS011;8151;47.824;12.092;2022-09-09T12:09:40;0.80;;;0.80;;
16093;SDS011;8151;47.824;12.092;2022-09-09T12:15:21;0.90;;;0.80;;
16093;SDS011;8151;47.824;12.092;2022-09-09T12:17:55;1.03;;;0.83;;
16093;SDS011;8151;47.824;12.092;2022-09-09T12:20:33;2.43;;;1.10;;
16093;SDS011;8151;47.824;12.092;2022-09-09T12:23:19;1.53;;;1.07;;
16093;SDS011;8151;47.824;12.092;2022-09-09T12:29:04;1.47;;;1.37;;
16093;SDS011;8151;47.824;12.092;2022-09-09T12:31:41;2.37;;;1.17;;
16093;SDS011;8151;47.824;12.092;2022-09-09T12:34:15;1.73;;;0.90;;
16093;SDS011;8151;47.824;12.092;2022-09-09T12:36:46;1.37;;;1.10;;
16093;SDS011;8151;47.824;12.092;2022-09-09T12:39:27;1.30;;;1.20;;
16093;SDS011;8151;47.824;12.092;2022-09-09T13:34:11;2.77;;;1.10;;
16093;SDS011;8151;47.824;12.092;2022-09-09T13:36:41;1.87;;;0.90;;
16093;SDS011;8151;47.824;12.092;2022-09-09T13:39:13;2.50;;;0.80;;
16093;SDS011;8151;47.824;12.092;2022-09-09T13:41:48;0.97;;;0.93;;
16093;SDS011;8151;47.824;12.092;2022-09-09T13:44:17;1.07;;;0.87;;
16093;SDS011;8151;47.824;12.092;2022-09-09T13:47:00;0.70;;;0.70;;
16093;SDS011;8151;47.824;12.092;2022-09-09T13:49:39;0.83;;;0.83;;
16093;SDS011;8151;47.824;12.092;2022-09-09T13:52:09;1.67;;;0.97;;
16093;SDS011;8151;47.824;12.092;2022-09-09T13:54:40;2.20;;;1.50;;
16093;SDS011;8151;47.824;12.092;2022-09-09T13:57:14;1.47;;;1.23;;
16093;SDS011;8151;47.824;12.092;2022-09-09T13:59:44;0.97;;;0.70;;
16093;SDS011;8151;47.824;12.092;2022-09-09T14:02:30;1.07;;;0.90;;
16093;SDS011;8151;47.824;12.092;2022-09-09T14:05:00;1.47;;;0.90;;
16093;SDS011;8151;47.824;12.092;2022-09-09T14:07:29;0.83;;;0.63;;
16093;SDS011;8151;47.824;12.092;2022-09-09T14:09:58;0.77;;;0.70;;
16093;SDS011;8151;47.824;12.092;2022-09-09T14:12:27;0.70;;;0.70;;
16093;SDS011;8151;47.824;12.092;2022-09-09T14:14:56;0.60;;;0.60;;
16093;SDS011;8151;47.824;12.092;2022-09-09T14:17:24;0.60;;;0.60;;
16093;SDS011;8151;47.824;12.092;2022-09-09T14:20:00;1.60;;;0.87;;
16093;SDS011;8151;47.824;12.092;2022-09-09T14:22:29;0.50;;;0.50;;
16093;SDS011;8151;47.824;12.092;2022-09-09T14:24:57;0.40;;;0.40;;
16093;SDS011;8151;47.824;12.092;2022-09-09T14:27:26;0.77;;;0.60;;
16093;SDS011;8151;47.824;12.092;2022-09-09T14:29:54;0.67;;;0.67;;
16093;SDS011;8151;47.824;12.092;2022-09-09T14:32:23;3.97;;;0.60;;
16093;SDS011;8151;47.824;12.092;2022-09-09T14:34:51;0.53;;;0.50;;
16093;SDS011;8151;47.824;12.092;2022-09-09T14:37:21;0.53;;;0.50;;
16093;SDS011;8151;47.824;12.092;2022-09-09T14:39:51;0.60;;;0.60;;
16093;SDS011;8151;47.824;12.092;2022-09-09T14:42:20;0.90;;;0.57;;
16093;SDS011;8151;47.824;12.092;2022-09-09T14:44:50;1.50;;;0.63;;
16093;SDS011;8151;47.824;12.092;2022-09-09T14:47:18;0.77;;;0.53;;
16093;SDS011;8151;47.824;12.092;2022-09-09T14:49:47;0.97;;;0.70;;
16093;SDS011;8151;47.824;12.092;2022-09-09T14:52:16;0.77;;;0.50;;
16093;SDS011;8151;47.824;12.092;2022-09-09T14:54:46;0.53;;;0.50;;
16093;SDS011;8151;47.824;12.092;2022-09-09T14:57:14;0.73;;;0.30;;
16093;SDS011;8151;47.824;12.092;2022-09-09T14:59:43;1.40;;;0.57;;
16093;SDS011;8151;47.824;12.092;2022-09-09T15:02:11;0.70;;;0.53;;
16093;SDS011;8151;47.824;12.092;2022-09-09T15:04:40;0.63;;;0.40;;
16093;SDS011;8151;47.824;12.092;2022-09-09T15:07:09;0.50;;;0.50;;
16093;SDS011;8151;47.824;12.092;2022-09-09T15:09:38;0.97;;;0.80;;
16093;SDS011;8151;47.824;12.092;2022-09-09T15:12:08;1.80;;;0.70;;
16093;SDS011;8151;47.824;12.092;2022-09-09T15:14:36;1.90;;;0.47;;
16093;SDS011;8151;47.824;12.092;2022-09-09T15:17:05;1.17;;;0.67;;
16093;SDS011;8151;47.824;12.092;2022-09-09T15:19:33;2.40;;;0.80;;
16093;SDS011;8151;47.824;12.092;2022-09-09T15:22:03;0.50;;;0.50;;
16093;SDS011;8151;47.824;12.092;2022-09-09T15:24:34;0.73;;;0.70;;
16093;SDS011;8151;47.824;12.092;2022-09-09T15:27:04;0.97;;;0.60;;
16093;SDS011;8151;47.824;12.092;2022-09-09T15:29:34;0.37;;;0.37;;
16093;SDS011;8151;47.824;12.092;2022-09-09T15:32:02;1.77;;;0.67;;
16093;SDS011;8151;47.824;12.092;2022-09-09T15:34:30;0.57;;;0.57;;
16093;SDS011;8151;47.824;12.092;2022-09-09T15:36:59;1.53;;;0.40;;
16093;SDS011;8151;47.824;12.092;2022-09-09T15:39:27;1.33;;;0.40;;
16093;SDS011;8151;47.824;12.092;2022-09-09T15:41:56;2.00;;;0.40;;
16093;SDS011;8151;47.824;12.092;2022-09-09T15:44:24;0.83;;;0.40;;
16093;SDS011;8151;47.824;12.092;2022-09-09T15:46:54;0.47;;;0.47;;
16093;SDS011;8151;47.824;12.092;2022-09-09T15:49:23;0.37;;;0.37;;
16093;SDS011;8151;47.824;12.092;2022-09-09T15:51:53;2.27;;;0.67;;
16093;SDS011;8151;47.824;12.092;2022-09-09T15:54:24;0.90;;;0.43;;
16093;SDS011;8151;47.824;12.092;2022-09-09T15:56:54;1.37;;;0.60;;
16093;SDS011;8151;47.824;12.092;2022-09-09T15:59:24;0.50;;;0.50;;
16093;SDS011;8151;47.824;12.092;2022-09-09T16:01:56;2.30;;;0.80;;
16093;SDS011;8151;47.824;12.092;2022-09-09T16:04:27;2.10;;;0.60;;
16093;SDS011;8151;47.824;12.092;2022-09-09T16:06:57;1.80;;;0.40;;
16093;SDS011;8151;47.824;12.092;2022-09-09T16:09:28;1.10;;;0.50;;
16093;SDS011;8151;47.824;12.092;2022-09-09T16:11:57;0.80;;;0.60;;
16093;SDS011;8151;47.824;12.092;2022-09-09T16:14:27;0.57;;;0.57;;
16093;SDS011;8151;47.824;12.092;2022-09-09T16:17:02;2.47;;;0.80;;
16093;SDS011;8151;47.824;12.092;2022-09-09T16:19:32;1.33;;;0.80;;
16093;SDS011;8151;47.824;12.092;2022-09-09T16:22:01;1.87;;;0.60;;
16093;SDS011;8151;47.824;12.092;2022-09-09T16:24:30;1.70;;;0.80;;
16093;SDS011;8151;47.824;12.092;2022-09-09T16:26:59;0.40;;;0.40;;
16093;SDS011;8151;47.824;12.092;2022-09-09T16:29:27;0.97;;;0.60;;
16093;SDS011;8151;47.824;12.092;2022-09-09T16:31:55;1.03;;;0.70;;
16093;SDS011;8151;47.824;12.092;2022-09-09T16:34:31;0.63;;;0.40;;
16093;SDS011;8151;47.824;12.092;2022-09-09T16:37:00;0.60;;;0.40;;
16093;SDS011;8151;47.824;12.092;2022-09-09T16:39:29;0.93;;;0.60;;
16093;SDS011;8151;47.824;12.092;2022-09-09T16:41:58;0.90;;;0.57;;
16093;SDS011;8151;47.824;12.092;2022-09-09T16:44:27;1.03;;;0.50;;
16093;SDS011;8151;47.824;12.092;2022-09-09T16:46:56;0.77;;;0.60;;
16093;SDS011;8151;47.824;12.092;2022-09-09T16:49:27;0.50;;;0.50;;
16093;SDS011;8151;47.824;12.092;2022-09-09T16:51:58;1.50;;;0.93;;
16093;SDS011;8151;47.824;12.092;2022-09-09T16:54:27;0.60;;;0.60;;
16093;SDS011;8151;47.824;12.092;2022-09-09T16:56:56;0.93;;;0.70;;
16093;SDS011;8151;47.824;12.092;2022-09-09T16:59:25;3.30;;;0.60;;
16093;SDS011;8151;47.824;12.092;2022-09-09T17:01:54;2.03;;;0.73;;
16093;SDS011;8151;47.824;12.092;2022-09-09T17:04:25;3.63;;;0.63;;
16093;SDS011;8151;47.824;12.092;2022-09-09T17:06:55;1.50;;;0.80;;
16093;SDS011;8151;47.824;12.092;2022-09-09T17:09:25;0.70;;;0.70;;
16093;SDS011;8151;47.824;12.092;2022-09-09T17:11:56;0.60;;;0.60;;
16093;SDS011;8151;47.824;12.092;2022-09-09T17:14:25;0.70;;;0.67;;
16093;SDS011;8151;47.824;12.092;2022-09-09T17:16:53;3.47;;;0.90;;
16093;SDS011;8151;47.824;12.092;2022-09-09T17:19:39;0.57;;;0.57;;
16093;SDS011;8151;47.824;12.092;2022-09-09T17:22:08;1.33;;;0.67;;
16093;SDS011;8151;47.824;12.092;2022-09-09T17:24:45;0.63;;;0.60;;
16093;SDS011;8151;47.824;12.092;2022-09-09T17:27:14;0.37;;;0.37;;
16093;SDS011;8151;47.824;12.092;2022-09-09T17:29:42;2.20;;;0.77;;
16093;SDS011;8151;47.824;12.092;2022-09-09T17:32:11;1.50;;;0.83;;
16093;SDS011;8151;47.824;12.092;2022-09-09T17:34:39;0.90;;;0.70;;
16093;SDS011;8151;47.824;12.092;2022-09-09T17:37:08;2.00;;;0.70;;
16093;SDS011;8151;47.824;12.092;2022-09-09T17:39:36;0.77;;;0.50;;
16093;SDS011;8151;47.824;12.092;2022-09-09T17:42:06;1.23;;;0.70;;
16093;SDS011;8151;47.824;12.092;2022-09-09T17:44:35;1.43;;;0.87;;
16093;SDS011;8151;47.824;12.092;2022-09-09T17:47:04;1.37;;;1.03;;
16093;SDS011;8151;47.824;12.092;2022-09-09T17:49:32;0.93;;;0.73;;
16093;SDS011;8151;47.824;12.092;2022-09-09T17:52:01;0.80;;;0.80;;
16093;SDS011;8151;47.824;12.092;2022-09-09T17:54:30;0.87;;;0.63;;
16093;SDS011;8151;47.824;12.092;2022-09-09T17:57:00;0.97;;;0.80;;
16093;SDS011;8151;47.824;12.092;2022-09-09T17:59:30;1.50;;;0.60;;
16093;SDS011;8151;47.824;12.092;2022-09-09T18:01:59;0.77;;;0.73;;
16093;SDS011;8151;47.824;12.092;2022-09-09T18:04:29;3.37;;;0.90;;
16093;SDS011;8151;47.824;12.092;2022-09-09T18:06:57;1.00;;;0.87;;
16093;SDS011;8151;47.824;12.092;2022-09-09T18:09:26;0.90;;;0.77;;
16093;SDS011;8151;47.824;12.092;2022-09-09T18:11:56;0.83;;;0.83;;
16093;SDS011;8151;47.824;12.092;2022-09-09T18:14:26;2.50;;;1.10;;
16093;SDS011;8151;47.824;12.092;2022-09-09T18:16:58;1.93;;;0.80;;
16093;SDS011;8151;47.824;12.092;2022-09-09T18:19:30;0.90;;;0.60;;
16093;SDS011;8151;47.824;12.092;2022-09-09T18:22:00;0.40;;;0.40;;